sensor_id;sensor_type;location;lat;lon;timestamp;P1;durP1;ratioP1;P2;durP2;ratioP2
17890;SDS011;9071;48.220;14.480;2022-10-04T00:02:01;9.27;;;4.23;;
17890;SDS011;9071;48.220;14.480;2022-10-04T00:07:12;6.87;;;3.90;;
17890;SDS011;9071;48.220;14.480;2022-10-04T00:12:19;10.97;;;4.20;;
17890;SDS011;9071;48.220;14.480;2022-10-04T00:17:25;13.13;;;4.50;;
17890;SDS011;9071;48.220;14.480;2022-10-04T00:22:31;7.47;;;3.73;;
17890;SDS011;9071;48.220;14.480;2022-10-04T00:27:33;15.57;;;5.00;;
17890;SDS011;9071;48.220;14.480;2022-10-04T00:38:07;10.23;;;5.40;;
17890;SDS011;9071;48.220;14.480;2022-10-04T00:43:14;10.17;;;4.90;;
17890;SDS011;9071;48.220;14.480;2022-10-04T00:53:50;8.37;;;4.50;;
17890;SDS011;9071;48.220;14.480;2022-10-04T01:04:40;9.00;;;4.80;;
17890;SDS011;9071;48.220;14.480;2022-10-04T01:09:47;10.93;;;4.87;;
17890;SDS011;9071;48.220;14.480;2022-10-04T01:14:54;10.10;;;4.90;;
17890;SDS011;9071;48.220;14.480;2022-10-04T01:20:12;10.87;;;5.40;;
17890;SDS011;9071;48.220;14.480;2022-10-04T01:25:44;11.50;;;5.87;;
17890;SDS011;9071;48.220;14.480;2022-10-04T01:30:47;10.33;;;5.50;;
17890;SDS011;9071;48.220;14.480;2022-10-04T01:35:49;12.47;;;5.83;;
17890;SDS011;9071;48.220;14.480;2022-10-04T01:40:54;12.67;;;5.80;;
17890;SDS011;9071;48.220;14.480;2022-10-04T01:46:00;11.20;;;5.77;;
17890;SDS011;9071;48.220;14.480;2022-10-04T01:51:07;10.13;;;5.73;;
17890;SDS011;9071;48.220;14.480;2022-10-04T01:56:17;11.57;;;5.47;;
17890;SDS011;9071;48.220;14.480;2022-10-04T02:01:22;10.20;;;5.73;;
17890;SDS011;9071;48.220;14.480;2022-10-04T02:06:30;10.67;;;6.13;;
17890;SDS011;9071;48.220;14.480;2022-10-04T02:11:39;12.67;;;5.43;;
17890;SDS011;9071;48.220;14.480;2022-10-04T02:16:44;11.57;;;5.70;;
17890;SDS011;9071;48.220;14.480;2022-10-04T02:21:51;12.20;;;5.93;;
17890;SDS011;9071;48.220;14.480;2022-10-04T02:26:55;12.37;;;5.67;;
17890;SDS011;9071;48.220;14.480;2022-10-04T02:31:57;11.13;;;6.10;;
17890;SDS011;9071;48.220;14.480;2022-10-04T02:37:18;14.90;;;6.50;;
17890;SDS011;9071;48.220;14.480;2022-10-04T02:42:27;12.47;;;6.30;;
17890;SDS011;9071;48.220;14.480;2022-10-04T02:47:41;12.50;;;6.17;;
17890;SDS011;9071;48.220;14.480;2022-10-04T02:52:46;12.50;;;6.73;;
17890;SDS011;9071;48.220;14.480;2022-10-04T02:57:53;14.20;;;5.83;;
17890;SDS011;9071;48.220;14.480;2022-10-04T03:03:11;12.60;;;5.93;;
17890;SDS011;9071;48.220;14.480;2022-10-04T03:08:17;12.00;;;6.47;;
17890;SDS011;9071;48.220;14.480;2022-10-04T03:13:21;12.07;;;6.90;;
17890;SDS011;9071;48.220;14.480;2022-10-04T03:18:23;12.53;;;7.33;;
17890;SDS011;9071;48.220;14.480;2022-10-04T03:23:25;14.27;;;7.40;;
17890;SDS011;9071;48.220;14.480;2022-10-04T03:28:32;18.17;;;8.20;;
17890;SDS011;9071;48.220;14.480;2022-10-04T03:33:37;14.50;;;7.90;;
17890;SDS011;9071;48.220;14.480;2022-10-04T03:38:40;16.87;;;7.07;;
17890;SDS011;9071;48.220;14.480;2022-10-04T03:43:44;13.17;;;6.93;;
17890;SDS011;9071;48.220;14.480;2022-10-04T03:48:49;14.30;;;7.53;;
17890;SDS011;9071;48.220;14.480;2022-10-04T03:53:53;17.00;;;8.77;;
17890;SDS011;9071;48.220;14.480;2022-10-04T03:58:59;16.77;;;7.50;;
17890;SDS011;9071;48.220;14.480;2022-10-04T04:04:08;9.90;;;6.47;;
17890;SDS011;9071;48.220;14.480;2022-10-04T04:09:22;14.40;;;7.43;;
17890;SDS011;9071;48.220;14.480;2022-10-04T04:14:30;19.33;;;7.43;;
17890;SDS011;9071;48.220;14.480;2022-10-04T04:19:32;11.87;;;7.30;;
17890;SDS011;9071;48.220;14.480;2022-10-04T04:24:36;14.20;;;7.57;;
17890;SDS011;9071;48.220;14.480;2022-10-04T04:29:41;16.97;;;8.30;;
17890;SDS011;9071;48.220;14.480;2022-10-04T04:34:48;14.00;;;7.40;;
17890;SDS011;9071;48.220;14.480;2022-10-04T04:39:52;12.50;;;7.23;;
17890;SDS011;9071;48.220;14.480;2022-10-04T04:44:57;13.80;;;6.93;;
17890;SDS011;9071;48.220;14.480;2022-10-04T04:50:03;15.90;;;7.27;;
17890;SDS011;9071;48.220;14.480;2022-10-04T04:55:14;9.73;;;6.70;;
17890;SDS011;9071;48.220;14.480;2022-10-04T05:00:21;13.80;;;7.40;;
17890;SDS011;9071;48.220;14.480;2022-10-04T05:05:29;14.07;;;6.80;;
17890;SDS011;9071;48.220;14.480;2022-10-04T05:10:33;13.97;;;6.67;;
17890;SDS011;9071;48.220;14.480;2022-10-04T05:15:37;15.83;;;8.27;;
17890;SDS011;9071;48.220;14.480;2022-10-04T05:20:41;18.20;;;10.07;;
17890;SDS011;9071;48.220;14.480;2022-10-04T05:25:48;15.10;;;8.70;;
17890;SDS011;9071;48.220;14.480;2022-10-04T05:30:56;16.33;;;9.37;;
17890;SDS011;9071;48.220;14.480;2022-10-04T05:41:57;15.07;;;8.50;;
17890;SDS011;9071;48.220;14.480;2022-10-04T05:47:10;15.93;;;9.40;;
17890;SDS011;9071;48.220;14.480;2022-10-04T05:52:14;17.00;;;8.83;;
17890;SDS011;9071;48.220;14.480;2022-10-04T05:57:30;26.70;;;13.80;;
17890;SDS011;9071;48.220;14.480;2022-10-04T06:08:26;18.87;;;10.63;;
17890;SDS011;9071;48.220;14.480;2022-10-04T06:13:45;16.13;;;10.10;;
17890;SDS011;9071;48.220;14.480;2022-10-04T06:19:11;12.83;;;7.53;;
17890;SDS011;9071;48.220;14.480;2022-10-04T06:24:27;9.97;;;4.90;;
17890;SDS011;9071;48.220;14.480;2022-10-04T06:29:36;8.17;;;3.90;;
17890;SDS011;9071;48.220;14.480;2022-10-04T06:34:48;9.50;;;4.17;;
17890;SDS011;9071;48.220;14.480;2022-10-04T06:40:15;8.00;;;4.30;;
17890;SDS011;9071;48.220;14.480;2022-10-04T06:45:43;14.57;;;4.30;;
17890;SDS011;9071;48.220;14.480;2022-10-04T06:50:57;7.30;;;4.13;;
17890;SDS011;9071;48.220;14.480;2022-10-04T06:56:18;8.23;;;3.80;;
17890;SDS011;9071;48.220;14.480;2022-10-04T07:01:33;8.27;;;4.60;;
17890;SDS011;9071;48.220;14.480;2022-10-04T07:06:40;5.80;;;4.10;;
17890;SDS011;9071;48.220;14.480;2022-10-04T07:12:18;7.37;;;4.20;;
17890;SDS011;9071;48.220;14.480;2022-10-04T07:17:23;7.43;;;3.95;;
17890;SDS011;9071;48.220;14.480;2022-10-04T07:22:32;12.18;;;4.75;;
17890;SDS011;9071;48.220;14.480;2022-10-04T07:27:45;6.35;;;3.83;;
17890;SDS011;9071;48.220;14.480;2022-10-04T07:33:15;7.88;;;4.35;;
17890;SDS011;9071;48.220;14.480;2022-10-04T07:38:25;9.15;;;4.20;;
17890;SDS011;9071;48.220;14.480;2022-10-04T07:43:29;8.38;;;4.20;;
17890;SDS011;9071;48.220;14.480;2022-10-04T07:48:33;9.43;;;4.00;;
17890;SDS011;9071;48.220;14.480;2022-10-04T07:53:42;10.70;;;4.78;;
17890;SDS011;9071;48.220;14.480;2022-10-04T07:58:54;7.22;;;4.43;;
17890;SDS011;9071;48.220;14.480;2022-10-04T08:04:05;10.27;;;4.13;;
17890;SDS011;9071;48.220;14.480;2022-10-04T08:09:22;7.90;;;4.25;;
17890;SDS011;9071;48.220;14.480;2022-10-04T08:14:50;9.32;;;3.67;;
17890;SDS011;9071;48.220;14.480;2022-10-04T08:20:02;8.50;;;4.05;;
17890;SDS011;9071;48.220;14.480;2022-10-04T08:25:24;6.28;;;4.07;;
17890;SDS011;9071;48.220;14.480;2022-10-04T08:30:38;8.75;;;3.63;;
17890;SDS011;9071;48.220;14.480;2022-10-04T08:35:54;8.60;;;4.20;;
17890;SDS011;9071;48.220;14.480;2022-10-04T08:46:57;8.63;;;4.13;;
17890;SDS011;9071;48.220;14.480;2022-10-04T08:58:13;6.22;;;3.60;;
17890;SDS011;9071;48.220;14.480;2022-10-04T09:14:58;6.25;;;2.35;;
17890;SDS011;9071;48.220;14.480;2022-10-04T09:20:18;5.53;;;2.10;;
17890;SDS011;9071;48.220;14.480;2022-10-04T09:31:06;4.57;;;2.05;;
17890;SDS011;9071;48.220;14.480;2022-10-04T09:42:21;6.38;;;2.40;;
17890;SDS011;9071;48.220;14.480;2022-10-04T09:48:01;4.55;;;2.40;;
17890;SDS011;9071;48.220;14.480;2022-10-04T09:53:28;3.60;;;2.40;;
17890;SDS011;9071;48.220;14.480;2022-10-04T09:58:44;5.05;;;2.60;;
17890;SDS011;9071;48.220;14.480;2022-10-04T10:04:04;4.97;;;2.42;;
17890;SDS011;9071;48.220;14.480;2022-10-04T10:09:25;6.43;;;2.08;;
17890;SDS011;9071;48.220;14.480;2022-10-04T10:14:55;4.93;;;2.47;;
17890;SDS011;9071;48.220;14.480;2022-10-04T10:20:13;3.63;;;1.90;;
17890;SDS011;9071;48.220;14.480;2022-10-04T10:25:36;3.08;;;1.90;;
17890;SDS011;9071;48.220;14.480;2022-10-04T10:30:54;3.40;;;2.08;;
17890;SDS011;9071;48.220;14.480;2022-10-04T10:42:04;5.20;;;1.50;;
17890;SDS011;9071;48.220;14.480;2022-10-04T10:47:25;3.45;;;1.60;;
17890;SDS011;9071;48.220;14.480;2022-10-04T10:52:59;8.02;;;2.70;;
17890;SDS011;9071;48.220;14.480;2022-10-04T11:04:09;3.67;;;1.70;;
17890;SDS011;9071;48.220;14.480;2022-10-04T11:09:29;3.50;;;1.60;;
17890;SDS011;9071;48.220;14.480;2022-10-04T11:14:40;4.85;;;1.70;;
17890;SDS011;9071;48.220;14.480;2022-10-04T11:20:17;4.15;;;1.67;;
17890;SDS011;9071;48.220;14.480;2022-10-04T11:25:47;3.75;;;1.58;;
17890;SDS011;9071;48.220;14.480;2022-10-04T11:31:05;2.83;;;1.58;;
17890;SDS011;9071;48.220;14.480;2022-10-04T11:36:43;4.03;;;1.52;;
17890;SDS011;9071;48.220;14.480;2022-10-04T11:42:03;3.38;;;1.20;;
17890;SDS011;9071;48.220;14.480;2022-10-04T11:47:21;5.72;;;1.75;;
17890;SDS011;9071;48.220;14.480;2022-10-04T11:52:41;4.60;;;1.60;;
17890;SDS011;9071;48.220;14.480;2022-10-04T11:58:12;2.45;;;1.33;;
17890;SDS011;9071;48.220;14.480;2022-10-04T12:03:22;4.53;;;1.30;;
17890;SDS011;9071;48.220;14.480;2022-10-04T12:08:47;3.58;;;1.60;;
17890;SDS011;9071;48.220;14.480;2022-10-04T12:14:01;4.88;;;1.60;;
17890;SDS011;9071;48.220;14.480;2022-10-04T12:19:30;4.97;;;1.75;;
17890;SDS011;9071;48.220;14.480;2022-10-04T12:36:12;3.35;;;1.60;;
17890;SDS011;9071;48.220;14.480;2022-10-04T12:41:29;2.85;;;1.08;;
17890;SDS011;9071;48.220;14.480;2022-10-04T12:46:40;1.73;;;1.13;;
17890;SDS011;9071;48.220;14.480;2022-10-04T12:51:55;2.75;;;1.10;;
17890;SDS011;9071;48.220;14.480;2022-10-04T13:02:45;1.60;;;0.80;;
17890;SDS011;9071;48.220;14.480;2022-10-04T13:07:58;1.73;;;0.98;;
17890;SDS011;9071;48.220;14.480;2022-10-04T13:18:44;2.28;;;0.70;;
17890;SDS011;9071;48.220;14.480;2022-10-04T13:23:56;1.65;;;1.20;;
17890;SDS011;9071;48.220;14.480;2022-10-04T13:29:05;3.25;;;0.90;;
17890;SDS011;9071;48.220;14.480;2022-10-04T13:34:24;2.80;;;1.08;;
17890;SDS011;9071;48.220;14.480;2022-10-04T13:39:39;3.08;;;0.80;;
17890;SDS011;9071;48.220;14.480;2022-10-04T13:44:59;1.73;;;0.98;;
17890;SDS011;9071;48.220;14.480;2022-10-04T13:55:39;3.47;;;1.02;;
17890;SDS011;9071;48.220;14.480;2022-10-04T14:01:12;1.55;;;0.98;;
17890;SDS011;9071;48.220;14.480;2022-10-04T14:06:41;3.13;;;0.73;;
17890;SDS011;9071;48.220;14.480;2022-10-04T14:12:29;1.20;;;0.70;;
17890;SDS011;9071;48.220;14.480;2022-10-04T14:18:27;3.00;;;0.93;;
17890;SDS011;9071;48.220;14.480;2022-10-04T14:24:19;3.03;;;0.77;;
17890;SDS011;9071;48.220;14.480;2022-10-04T14:29:59;1.50;;;0.80;;
17890;SDS011;9071;48.220;14.480;2022-10-04T14:35:17;2.17;;;0.50;;
17890;SDS011;9071;48.220;14.480;2022-10-04T14:40:35;1.55;;;0.70;;
17890;SDS011;9071;48.220;14.480;2022-10-04T14:45:56;3.00;;;0.80;;
17890;SDS011;9071;48.220;14.480;2022-10-04T14:51:13;1.85;;;0.70;;
17890;SDS011;9071;48.220;14.480;2022-10-04T14:56:41;2.00;;;0.60;;
17890;SDS011;9071;48.220;14.480;2022-10-04T15:07:27;0.77;;;0.52;;
17890;SDS011;9071;48.220;14.480;2022-10-04T15:12:52;1.70;;;0.70;;
17890;SDS011;9071;48.220;14.480;2022-10-04T15:17:59;2.47;;;1.05;;
17890;SDS011;9071;48.220;14.480;2022-10-04T15:23:08;1.15;;;0.50;;
17890;SDS011;9071;48.220;14.480;2022-10-04T15:33:57;0.85;;;0.70;;
17890;SDS011;9071;48.220;14.480;2022-10-04T15:39:07;2.38;;;0.73;;
17890;SDS011;9071;48.220;14.480;2022-10-04T15:44:47;2.28;;;0.90;;
17890;SDS011;9071;48.220;14.480;2022-10-04T15:50:06;1.95;;;0.93;;
17890;SDS011;9071;48.220;14.480;2022-10-04T15:55:21;1.05;;;0.60;;
17890;SDS011;9071;48.220;14.480;2022-10-04T16:00:39;1.65;;;0.70;;
17890;SDS011;9071;48.220;14.480;2022-10-04T16:05:48;1.45;;;0.70;;
17890;SDS011;9071;48.220;14.480;2022-10-04T16:11:21;1.20;;;0.65;;
17890;SDS011;9071;48.220;14.480;2022-10-04T16:22:28;1.42;;;0.70;;
17890;SDS011;9071;48.220;14.480;2022-10-04T16:33:10;1.23;;;0.80;;
17890;SDS011;9071;48.220;14.480;2022-10-04T16:38:30;2.90;;;1.00;;
17890;SDS011;9071;48.220;14.480;2022-10-04T16:43:36;6.90;;;3.80;;
17890;SDS011;9071;48.220;14.480;2022-10-04T16:48:49;3.63;;;2.60;;
17890;SDS011;9071;48.220;14.480;2022-10-04T16:53:58;3.80;;;1.80;;
17890;SDS011;9071;48.220;14.480;2022-10-04T16:59:10;3.37;;;2.37;;
17890;SDS011;9071;48.220;14.480;2022-10-04T17:04:23;11.87;;;6.73;;
17890;SDS011;9071;48.220;14.480;2022-10-04T17:09:47;8.90;;;4.63;;
17890;SDS011;9071;48.220;14.480;2022-10-04T17:14:55;6.33;;;3.87;;
17890;SDS011;9071;48.220;14.480;2022-10-04T17:20:11;8.70;;;3.90;;
17890;SDS011;9071;48.220;14.480;2022-10-04T17:25:28;13.97;;;7.63;;
17890;SDS011;9071;48.220;14.480;2022-10-04T17:30:41;13.07;;;7.47;;
17890;SDS011;9071;48.220;14.480;2022-10-04T17:36:02;12.40;;;7.40;;
17890;SDS011;9071;48.220;14.480;2022-10-04T17:41:26;16.57;;;7.53;;
17890;SDS011;9071;48.220;14.480;2022-10-04T17:46:40;10.33;;;6.77;;
17890;SDS011;9071;48.220;14.480;2022-10-04T17:51:49;14.10;;;7.90;;
17890;SDS011;9071;48.220;14.480;2022-10-04T17:57:14;13.00;;;6.53;;
17890;SDS011;9071;48.220;14.480;2022-10-04T18:02:26;11.43;;;7.20;;
17890;SDS011;9071;48.220;14.480;2022-10-04T18:07:36;10.60;;;5.80;;
17890;SDS011;9071;48.220;14.480;2022-10-04T18:12:45;10.83;;;5.30;;
17890;SDS011;9071;48.220;14.480;2022-10-04T18:17:52;11.60;;;6.20;;
17890;SDS011;9071;48.220;14.480;2022-10-04T18:23:13;10.83;;;6.10;;
17890;SDS011;9071;48.220;14.480;2022-10-04T18:28:20;13.13;;;7.63;;
17890;SDS011;9071;48.220;14.480;2022-10-04T18:33:24;16.00;;;8.03;;
17890;SDS011;9071;48.220;14.480;2022-10-04T18:38:32;16.23;;;8.60;;
17890;SDS011;9071;48.220;14.480;2022-10-04T18:43:39;18.67;;;9.07;;
17890;SDS011;9071;48.220;14.480;2022-10-04T18:48:44;18.93;;;9.40;;
17890;SDS011;9071;48.220;14.480;2022-10-04T18:59:17;18.40;;;9.23;;
17890;SDS011;9071;48.220;14.480;2022-10-04T19:04:45;17.87;;;9.10;;
17890;SDS011;9071;48.220;14.480;2022-10-04T19:15:32;17.10;;;9.80;;
17890;SDS011;9071;48.220;14.480;2022-10-04T19:20:43;17.73;;;8.73;;
17890;SDS011;9071;48.220;14.480;2022-10-04T19:25:52;15.07;;;8.03;;
17890;SDS011;9071;48.220;14.480;2022-10-04T19:31:01;17.13;;;8.53;;
17890;SDS011;9071;48.220;14.480;2022-10-04T19:36:15;21.93;;;10.23;;
17890;SDS011;9071;48.220;14.480;2022-10-04T19:41:45;19.23;;;10.53;;
17890;SDS011;9071;48.220;14.480;2022-10-04T19:46:55;14.57;;;8.93;;
17890;SDS011;9071;48.220;14.480;2022-10-04T19:52:12;22.00;;;11.77;;
17890;SDS011;9071;48.220;14.480;2022-10-04T19:57:25;24.43;;;11.70;;
17890;SDS011;9071;48.220;14.480;2022-10-04T20:02:35;23.27;;;11.47;;
17890;SDS011;9071;48.220;14.480;2022-10-04T20:07:37;20.93;;;11.00;;
17890;SDS011;9071;48.220;14.480;2022-10-04T20:12:39;16.73;;;9.70;;
17890;SDS011;9071;48.220;14.480;2022-10-04T20:17:46;16.23;;;9.23;;
17890;SDS011;9071;48.220;14.480;2022-10-04T20:22:53;16.03;;;9.30;;
17890;SDS011;9071;48.220;14.480;2022-10-04T20:28:00;14.27;;;8.77;;
17890;SDS011;9071;48.220;14.480;2022-10-04T20:33:04;16.33;;;7.97;;
17890;SDS011;9071;48.220;14.480;2022-10-04T20:38:15;15.47;;;8.37;;
17890;SDS011;9071;48.220;14.480;2022-10-04T20:43:23;12.10;;;6.87;;
17890;SDS011;9071;48.220;14.480;2022-10-04T20:48:28;16.23;;;7.40;;
17890;SDS011;9071;48.220;14.480;2022-10-04T20:53:32;13.53;;;7.17;;
17890;SDS011;9071;48.220;14.480;2022-10-04T20:58:34;13.90;;;7.70;;
17890;SDS011;9071;48.220;14.480;2022-10-04T21:03:38;14.47;;;6.63;;
17890;SDS011;9071;48.220;14.480;2022-10-04T21:08:40;13.00;;;7.60;;
17890;SDS011;9071;48.220;14.480;2022-10-04T21:13:51;11.00;;;7.23;;
17890;SDS011;9071;48.220;14.480;2022-10-04T21:24:53;12.37;;;7.83;;
17890;SDS011;9071;48.220;14.480;2022-10-04T21:29:57;14.23;;;7.30;;
17890;SDS011;9071;48.220;14.480;2022-10-04T21:34:59;14.20;;;7.33;;
17890;SDS011;9071;48.220;14.480;2022-10-04T21:40:04;14.33;;;7.37;;
17890;SDS011;9071;48.220;14.480;2022-10-04T21:45:07;12.40;;;7.47;;
17890;SDS011;9071;48.220;14.480;2022-10-04T21:50:10;11.03;;;6.67;;
17890;SDS011;9071;48.220;14.480;2022-10-04T21:55:13;12.27;;;7.33;;
17890;SDS011;9071;48.220;14.480;2022-10-04T22:00:15;11.63;;;7.80;;
17890;SDS011;9071;48.220;14.480;2022-10-04T22:05:17;11.43;;;7.83;;
17890;SDS011;9071;48.220;14.480;2022-10-04T22:10:21;11.73;;;7.77;;
17890;SDS011;9071;48.220;14.480;2022-10-04T22:15:23;12.47;;;7.60;;
17890;SDS011;9071;48.220;14.480;2022-10-04T22:20:27;12.23;;;7.20;;
17890;SDS011;9071;48.220;14.480;2022-10-04T22:25:30;10.83;;;6.90;;
17890;SDS011;9071;48.220;14.480;2022-10-04T22:30:32;12.37;;;7.47;;
17890;SDS011;9071;48.220;14.480;2022-10-04T22:35:35;18.23;;;8.30;;
17890;SDS011;9071;48.220;14.480;2022-10-04T22:40:38;12.70;;;6.83;;
17890;SDS011;9071;48.220;14.480;2022-10-04T22:45:40;11.63;;;6.93;;
17890;SDS011;9071;48.220;14.480;2022-10-04T22:50:43;9.30;;;6.80;;
17890;SDS011;9071;48.220;14.480;2022-10-04T22:55:47;14.63;;;7.33;;
17890;SDS011;9071;48.220;14.480;2022-10-04T23:00:50;12.13;;;7.33;;
17890;SDS011;9071;48.220;14.480;2022-10-04T23:05:51;13.47;;;7.27;;
17890;SDS011;9071;48.220;14.480;2022-10-04T23:10:56;13.70;;;7.83;;
17890;SDS011;9071;48.220;14.480;2022-10-04T23:16:00;12.30;;;7.30;;
17890;SDS011;9071;48.220;14.480;2022-10-04T23:21:14;9.40;;;6.43;;
17890;SDS011;9071;48.220;14.480;2022-10-04T23:26:22;15.67;;;7.20;;
17890;SDS011;9071;48.220;14.480;2022-10-04T23:31:27;11.20;;;6.90;;
17890;SDS011;9071;48.220;14.480;2022-10-04T23:36:29;10.33;;;6.90;;
17890;SDS011;9071;48.220;14.480;2022-10-04T23:41:32;14.27;;;6.13;;
17890;SDS011;9071;48.220;14.480;2022-10-04T23:46:34;10.77;;;6.33;;
17890;SDS011;9071;48.220;14.480;2022-10-04T23:51:36;10.00;;;6.77;;
17890;SDS011;9071;48.220;14.480;2022-10-04T23:56:40;8.97;;;5.73;;
